Time;durP1;ratioP1;P1;durP2;ratioP2;P2;SDS_P1;SDS_P2;PMS_P1;PMS_P2;Temp;Humidity;BMP_temperature;BMP_pressure;BME280_temperature;BME280_humidity;BME280_pressure;Samples;Min_cycle;Max_cycle;Signal;HPM_P1;HPM_P2
2022/05/20 00:00:04;;;;;;;2.75;1.90;;;;;;;;;;5050178;28;20162;-50
2022/05/20 00:02:30;;;;;;;3.15;1.90;;;;;;;;;;5043627;28;20025;-52
2022/05/20 00:04:56;;;;;;;3.35;2.10;;;;;;;;;;5050601;28;20036;-51
2022/05/20 00:07:22;;;;;;;4.13;1.60;;;;;;;;;;5050180;28;20087;-54
2022/05/20 00:09:48;;;;;;;2.85;1.67;;;;;;;;;;5050486;28;20021;-51
2022/05/20 00:12:14;;;;;;;2.92;1.92;;;;;;;;;;5037057;28;20028;-53
2022/05/20 00:14:40;;;;;;;5.43;1.80;;;;;;;;;;5050632;28;20036;-51
2022/05/20 00:17:06;;;;;;;4.88;2.28;;;;;;;;;;5050296;28;20777;-54
2022/05/20 00:19:33;;;;;;;2.35;1.77;;;;;;;;;;5050655;28;20029;-50
2022/05/20 00:21:59;;;;;;;3.72;1.80;;;;;;;;;;5041548;28;20112;-51
2022/05/20 00:24:26;;;;;;;9.75;1.70;;;;;;;;;;5049743;28;20028;-51
2022/05/20 00:26:52;;;;;;;3.40;1.92;;;;;;;;;;5033889;28;20021;-53
2022/05/20 00:29:18;;;;;;;9.43;1.70;;;;;;;;;;5049941;28;20037;-53
2022/05/20 00:31:44;;;;;;;2.35;1.48;;;;;;;;;;5038069;28;20036;-54
2022/05/20 00:34:10;;;;;;;2.63;1.70;;;;;;;;;;5039282;28;20025;-53
2022/05/20 00:36:36;;;;;;;4.50;1.83;;;;;;;;;;5052427;28;20096;-54
2022/05/20 00:39:02;;;;;;;2.50;1.80;;;;;;;;;;5054086;28;20112;-51
2022/05/20 00:41:28;;;;;;;3.35;2.15;;;;;;;;;;5044783;28;20554;-51
2022/05/20 00:43:54;;;;;;;3.15;1.67;;;;;;;;;;5052496;28;20024;-51
2022/05/20 00:46:22;;;;;;;2.45;1.67;;;;;;;;;;5042073;28;20033;-52
2022/05/20 00:48:50;;;;;;;3.92;2.00;;;;;;;;;;5052808;28;20025;-51
2022/05/20 00:51:22;;;;;;;3.25;1.85;;;;;;;;;;5045861;28;20601;-53
2022/05/20 00:54:10;;;;;;;3.55;1.90;;;;;;;;;;5053549;28;20048;-54
2022/05/20 00:56:39;;;;;;;4.05;1.92;;;;;;;;;;5053735;28;20017;-54
2022/05/20 00:59:05;;;;;;;2.47;1.80;;;;;;;;;;5047061;28;20495;-54
2022/05/20 01:01:32;;;;;;;3.25;1.80;;;;;;;;;;5046624;28;20036;-54
2022/05/20 01:03:58;;;;;;;3.13;1.95;;;;;;;;;;5115165;22;20047;-86
2022/05/20 01:06:24;;;;;;;2.85;1.80;;;;;;;;;;5064645;22;20052;-55
2022/05/20 01:08:51;;;;;;;2.90;1.83;;;;;;;;;;5053672;28;20036;-54
2022/05/20 01:11:17;;;;;;;3.83;1.85;;;;;;;;;;5048166;28;20132;-52
2022/05/20 01:13:47;;;;;;;5.43;2.67;;;;;;;;;;5050730;28;20029;-54
2022/05/20 01:16:13;;;;;;;7.47;1.80;;;;;;;;;;5053200;28;20083;-53
2022/05/20 01:18:40;;;;;;;3.17;1.70;;;;;;;;;;5035325;28;20037;-54
2022/05/20 01:21:07;;;;;;;2.92;2.20;;;;;;;;;;5047318;28;20029;-51
2022/05/20 01:23:33;;;;;;;4.28;1.80;;;;;;;;;;5039761;28;20025;-54
2022/05/20 01:25:59;;;;;;;2.35;1.75;;;;;;;;;;5053248;28;20659;-51
2022/05/20 01:28:27;;;;;;;4.10;2.00;;;;;;;;;;5052679;28;20036;-53
2022/05/20 01:30:59;;;;;;;3.05;2.15;;;;;;;;;;5052573;28;20029;-54
2022/05/20 01:33:27;;;;;;;5.20;2.00;;;;;;;;;;5040658;28;20029;-54
2022/05/20 01:35:53;;;;;;;4.35;2.83;;;;;;;;;;5053040;28;20025;-52
2022/05/20 01:38:19;;;;;;;5.50;2.35;;;;;;;;;;5052953;28;20075;-54
2022/05/20 01:40:50;;;;;;;3.95;2.17;;;;;;;;;;5052611;28;20107;-54
2022/05/20 01:43:24;;;;;;;2.70;1.90;;;;;;;;;;5050605;28;20056;-54
2022/05/20 01:46:08;;;;;;;3.40;2.55;;;;;;;;;;5045149;28;20581;-54
2022/05/20 01:48:40;;;;;;;3.35;2.47;;;;;;;;;;5051486;28;20029;-54
2022/05/20 01:51:08;;;;;;;4.85;2.90;;;;;;;;;;5052293;28;20549;-53
2022/05/20 01:53:50;;;;;;;5.55;2.67;;;;;;;;;;5044503;28;20036;-54
2022/05/20 01:56:20;;;;;;;6.30;2.55;;;;;;;;;;5052693;28;20107;-54
2022/05/20 01:58:55;;;;;;;6.07;3.05;;;;;;;;;;5052352;28;20041;-54
2022/05/20 02:01:24;;;;;;;3.60;3.20;;;;;;;;;;5042384;28;20025;-51
2022/05/20 02:03:55;;;;;;;4.63;2.42;;;;;;;;;;5047394;28;20082;-54
2022/05/20 02:06:24;;;;;;;6.00;3.00;;;;;;;;;;5052148;28;20049;-54
2022/05/20 02:08:50;;;;;;;3.63;2.95;;;;;;;;;;5052522;28;20507;-55
2022/05/20 02:11:25;;;;;;;4.78;3.33;;;;;;;;;;5051841;28;20035;-54
2022/05/20 02:14:03;;;;;;;5.35;3.65;;;;;;;;;;5048959;28;20467;-54
2022/05/20 02:16:34;;;;;;;8.23;4.40;;;;;;;;;;5032217;28;20060;-54
2022/05/20 02:19:09;;;;;;;5.18;3.75;;;;;;;;;;5047268;28;20028;-54
2022/05/20 02:21:37;;;;;;;5.90;3.38;;;;;;;;;;5051103;28;20029;-54
2022/05/20 02:24:06;;;;;;;4.57;3.90;;;;;;;;;;5048650;28;20031;-54
2022/05/20 02:26:37;;;;;;;6.90;3.75;;;;;;;;;;5052220;28;20104;-54
2022/05/20 02:29:09;;;;;;;5.43;3.60;;;;;;;;;;5051429;28;20017;-51
2022/05/20 02:31:38;;;;;;;4.95;3.20;;;;;;;;;;5051350;28;20472;-52
2022/05/20 02:34:04;;;;;;;4.45;3.35;;;;;;;;;;5043827;28;20487;-52
2022/05/20 02:36:34;;;;;;;4.10;3.30;;;;;;;;;;5051833;28;20017;-52
2022/05/20 02:39:01;;;;;;;6.75;3.90;;;;;;;;;;5051887;28;20056;-51
2022/05/20 02:41:27;;;;;;;7.03;4.25;;;;;;;;;;5051291;28;20029;-53
2022/05/20 02:43:53;;;;;;;6.03;3.80;;;;;;;;;;5045096;28;20072;-52
2022/05/20 02:46:19;;;;;;;6.05;4.22;;;;;;;;;;5039456;28;20376;-53
2022/05/20 02:48:45;;;;;;;6.50;3.42;;;;;;;;;;5051493;28;20094;-54
2022/05/20 02:51:11;;;;;;;5.47;3.25;;;;;;;;;;5051220;28;20475;-52
2022/05/20 02:53:37;;;;;;;3.78;3.22;;;;;;;;;;5050206;28;20471;-51
2022/05/20 02:56:03;;;;;;;6.82;3.72;;;;;;;;;;5051287;28;20104;-54
2022/05/20 03:04:10;;;;;;;4.55;3.78;;;;;;;;;;5048645;28;20044;-52
2022/05/20 03:06:36;;;;;;;7.82;3.92;;;;;;;;;;5051067;28;20041;-54
2022/05/20 03:09:03;;;;;;;5.75;3.53;;;;;;;;;;5051555;28;20025;-51
2022/05/20 03:11:29;;;;;;;5.55;3.72;;;;;;;;;;5050798;28;20024;-54
2022/05/20 03:13:55;;;;;;;4.97;4.18;;;;;;;;;;5046882;28;20487;-54
2022/05/20 03:16:21;;;;;;;5.03;3.45;;;;;;;;;;5045001;28;20036;-53
2022/05/20 03:18:47;;;;;;;4.88;3.70;;;;;;;;;;5038421;28;20033;-53
2022/05/20 03:21:13;;;;;;;8.32;3.72;;;;;;;;;;5049101;28;20056;-51
2022/05/20 03:23:39;;;;;;;5.38;4.10;;;;;;;;;;5045538;28;20036;-51
2022/05/20 03:26:05;;;;;;;5.82;3.65;;;;;;;;;;5051168;28;20036;-54
2022/05/20 03:28:33;;;;;;;6.38;3.90;;;;;;;;;;5050688;28;20029;-54
2022/05/20 03:31:09;;;;;;;6.57;3.90;;;;;;;;;;5050611;28;20060;-52
2022/05/20 03:33:35;;;;;;;5.10;3.35;;;;;;;;;;5050311;28;20503;-54
2022/05/20 03:36:01;;;;;;;8.40;4.28;;;;;;;;;;5050995;28;20025;-51
2022/05/20 03:38:27;;;;;;;7.03;4.22;;;;;;;;;;5050910;28;20052;-51
2022/05/20 03:40:53;;;;;;;6.60;4.68;;;;;;;;;;5037027;28;20025;-53
2022/05/20 03:43:19;;;;;;;8.27;4.05;;;;;;;;;;5042651;28;20036;-54
2022/05/20 03:45:45;;;;;;;7.18;4.75;;;;;;;;;;5047776;28;20029;-51
2022/05/20 03:48:11;;;;;;;6.40;5.15;;;;;;;;;;5050504;28;20086;-54
2022/05/20 03:50:37;;;;;;;9.30;4.95;;;;;;;;;;5050584;28;20109;-53
2022/05/20 03:53:03;;;;;;;5.93;4.13;;;;;;;;;;5044956;28;20124;-54
2022/05/20 03:55:29;;;;;;;8.85;5.55;;;;;;;;;;5037412;28;20037;-54
2022/05/20 03:57:56;;;;;;;6.15;4.50;;;;;;;;;;5050791;28;20373;-54
2022/05/20 04:00:22;;;;;;;6.50;4.43;;;;;;;;;;5053596;28;20414;-54
2022/05/20 04:02:48;;;;;;;6.50;4.55;;;;;;;;;;5048890;28;20147;-54
2022/05/20 04:05:14;;;;;;;6.90;4.38;;;;;;;;;;5052227;28;20044;-54
2022/05/20 04:07:40;;;;;;;10.25;4.45;;;;;;;;;;5050459;28;20044;-54
2022/05/20 04:10:10;;;;;;;7.40;4.90;;;;;;;;;;5053213;28;20537;-53
2022/05/20 04:12:42;;;;;;;6.65;5.15;;;;;;;;;;5051837;28;20029;-52
2022/05/20 04:15:11;;;;;;;7.93;5.15;;;;;;;;;;5050402;28;20061;-53
2022/05/20 04:17:36;;;;;;;8.95;5.22;;;;;;;;;;5050002;28;20047;-51
2022/05/20 04:20:03;;;;;;;7.10;4.13;;;;;;;;;;5045637;28;20036;-52
2022/05/20 04:22:32;;;;;;;6.97;4.47;;;;;;;;;;5039017;28;20037;-54
2022/05/20 04:24:58;;;;;;;7.50;4.90;;;;;;;;;;5052162;28;20452;-53
2022/05/20 04:27:24;;;;;;;7.32;5.03;;;;;;;;;;5050299;28;20103;-53
2022/05/20 04:29:50;;;;;;;7.13;5.25;;;;;;;;;;5048602;28;20028;-52
2022/05/20 04:32:16;;;;;;;8.05;4.80;;;;;;;;;;5047132;28;20037;-54
2022/05/20 04:34:42;;;;;;;6.40;4.70;;;;;;;;;;5053293;28;20025;-54
2022/05/20 04:37:08;;;;;;;7.07;4.95;;;;;;;;;;5049275;28;20113;-52
2022/05/20 04:39:35;;;;;;;7.95;5.40;;;;;;;;;;5049243;28;20021;-54
2022/05/20 04:47:31;;;;;;;7.63;5.30;;;;;;;;;;5041915;28;20407;-54
2022/05/20 04:49:57;;;;;;;7.57;5.35;;;;;;;;;;5049548;28;20593;-53
2022/05/20 04:52:23;;;;;;;10.13;6.38;;;;;;;;;;5053902;28;20025;-52
2022/05/20 04:54:49;;;;;;;7.03;5.53;;;;;;;;;;5053721;28;20085;-52
2022/05/20 04:57:29;;;;;;;9.52;5.15;;;;;;;;;;5046330;28;20104;-53
2022/05/20 05:00:05;;;;;;;9.80;5.20;;;;;;;;;;5050286;28;20505;-54
2022/05/20 05:02:32;;;;;;;7.70;4.78;;;;;;;;;;5053811;28;20639;-52
2022/05/20 05:04:58;;;;;;;9.15;5.18;;;;;;;;;;5039492;28;20030;-54
2022/05/20 05:07:24;;;;;;;11.75;6.00;;;;;;;;;;5046124;28;20091;-54
2022/05/20 05:09:50;;;;;;;7.75;5.68;;;;;;;;;;5043900;28;20107;-53
2022/05/20 05:12:17;;;;;;;8.18;5.43;;;;;;;;;;5053444;28;20051;-53
2022/05/20 05:14:44;;;;;;;13.98;6.07;;;;;;;;;;5047832;28;20029;-54
2022/05/20 05:17:12;;;;;;;7.00;5.28;;;;;;;;;;5049266;28;20017;-51
2022/05/20 05:19:39;;;;;;;7.38;4.72;;;;;;;;;;5050890;28;20100;-54
2022/05/20 05:22:06;;;;;;;10.20;6.03;;;;;;;;;;5050080;28;20033;-53
2022/05/20 05:24:32;;;;;;;9.52;6.30;;;;;;;;;;5040892;28;20033;-54
2022/05/20 05:26:58;;;;;;;7.85;5.93;;;;;;;;;;5052527;28;20025;-53
2022/05/20 05:29:24;;;;;;;12.10;6.63;;;;;;;;;;5050770;28;20040;-53
2022/05/20 05:31:50;;;;;;;10.07;6.32;;;;;;;;;;5048430;28;20032;-53
2022/05/20 05:34:16;;;;;;;8.23;6.22;;;;;;;;;;5053078;28;20104;-54
2022/05/20 05:36:42;;;;;;;8.35;6.18;;;;;;;;;;5034870;28;20029;-53
2022/05/20 05:39:08;;;;;;;11.90;6.60;;;;;;;;;;5052974;28;20376;-55
2022/05/20 05:41:35;;;;;;;10.00;6.80;;;;;;;;;;5052776;28;20525;-52
2022/05/20 05:44:01;;;;;;;9.75;6.03;;;;;;;;;;5049165;28;20047;-54
2022/05/20 05:46:27;;;;;;;9.13;6.75;;;;;;;;;;5052987;28;20472;-54
2022/05/20 05:48:53;;;;;;;8.93;5.72;;;;;;;;;;5052523;28;20140;-52
2022/05/20 05:51:19;;;;;;;10.38;6.00;;;;;;;;;;5052429;28;20025;-53
2022/05/20 05:53:45;;;;;;;9.95;5.60;;;;;;;;;;5052803;28;20047;-55
2022/05/20 05:56:11;;;;;;;10.05;6.53;;;;;;;;;;5034871;28;20033;-53
2022/05/20 05:58:37;;;;;;;12.13;6.95;;;;;;;;;;5052570;28;20103;-53
2022/05/20 06:01:04;;;;;;;10.65;6.80;;;;;;;;;;5051926;28;20064;-52
2022/05/20 06:03:30;;;;;;;11.68;7.40;;;;;;;;;;5052441;28;20037;-52
2022/05/20 06:05:56;;;;;;;9.75;5.88;;;;;;;;;;5052264;28;20029;-54
2022/05/20 06:08:22;;;;;;;7.43;5.25;;;;;;;;;;5052514;28;20487;-55
2022/05/20 06:10:49;;;;;;;9.00;5.68;;;;;;;;;;5051789;28;20025;-54
2022/05/20 06:13:22;;;;;;;10.50;6.30;;;;;;;;;;5044074;28;20033;-54
2022/05/20 06:15:48;;;;;;;7.35;4.97;;;;;;;;;;5038727;28;20453;-54
2022/05/20 06:18:14;;;;;;;6.70;4.22;;;;;;;;;;5042680;28;20033;-54
2022/05/20 06:20:40;;;;;;;9.98;5.93;;;;;;;;;;5039531;28;20037;-54
2022/05/20 06:23:06;;;;;;;9.88;5.93;;;;;;;;;;5036408;28;20056;-55
2022/05/20 06:25:32;;;;;;;8.77;5.45;;;;;;;;;;5030163;28;20464;-54
2022/05/20 06:28:05;;;;;;;8.70;5.32;;;;;;;;;;5051841;28;20078;-55
2022/05/20 06:30:32;;;;;;;9.90;4.38;;;;;;;;;;5051332;28;20029;-55
2022/05/20 06:32:58;;;;;;;7.63;4.28;;;;;;;;;;5032435;28;20627;-56
2022/05/20 06:40:55;;;;;;;4.63;3.47;;;;;;;;;;5051588;28;20123;-54
2022/05/20 06:43:21;;;;;;;6.05;3.40;;;;;;;;;;5050119;28;20021;-55
2022/05/20 06:45:49;;;;;;;5.70;3.63;;;;;;;;;;5041872;28;20522;-54
2022/05/20 06:48:15;;;;;;;6.25;4.10;;;;;;;;;;5043969;28;20048;-52
2022/05/20 06:50:42;;;;;;;7.72;4.78;;;;;;;;;;5032132;28;20029;-51
2022/05/20 06:53:08;;;;;;;6.30;3.95;;;;;;;;;;5051578;28;20020;-53
2022/05/20 06:55:34;;;;;;;5.47;4.03;;;;;;;;;;5051540;28;20036;-54
2022/05/20 06:58:01;;;;;;;6.20;3.20;;;;;;;;;;5027705;28;20028;-54
2022/05/20 07:00:27;;;;;;;4.25;2.90;;;;;;;;;;5044833;28;20025;-54
2022/05/20 07:02:53;;;;;;;5.28;3.67;;;;;;;;;;5033848;28;20026;-53
2022/05/20 07:05:19;;;;;;;5.38;3.42;;;;;;;;;;5050312;28;20384;-54
2022/05/20 07:07:45;;;;;;;7.88;4.15;;;;;;;;;;5051171;28;20423;-54
2022/05/20 07:10:12;;;;;;;10.55;5.07;;;;;;;;;;5042609;28;20029;-54
2022/05/20 07:12:39;;;;;;;5.43;3.47;;;;;;;;;;5051358;28;20133;-52
2022/05/20 07:15:05;;;;;;;5.10;3.70;;;;;;;;;;5046232;28;20025;-54
2022/05/20 07:17:31;;;;;;;6.60;3.78;;;;;;;;;;5039622;28;20029;-54
2022/05/20 07:19:57;;;;;;;5.82;3.55;;;;;;;;;;5050685;28;20443;-54
2022/05/20 07:22:24;;;;;;;6.07;3.05;;;;;;;;;;5051330;28;20063;-54
2022/05/20 07:24:50;;;;;;;4.57;3.03;;;;;;;;;;5038313;28;20030;-51
2022/05/20 07:27:16;;;;;;;8.75;3.65;;;;;;;;;;5031053;28;20026;-51
2022/05/20 07:29:42;;;;;;;4.35;2.80;;;;;;;;;;5039345;28;20539;-53
2022/05/20 07:32:09;;;;;;;4.45;2.60;;;;;;;;;;5028880;28;20029;-54
2022/05/20 07:34:35;;;;;;;5.60;2.92;;;;;;;;;;5022746;28;20028;-55
2022/05/20 07:37:01;;;;;;;7.75;3.58;;;;;;;;;;5030205;28;20020;-54
2022/05/20 07:39:27;;;;;;;4.57;2.75;;;;;;;;;;5031479;28;20048;-52
2022/05/20 07:41:53;;;;;;;6.38;2.30;;;;;;;;;;5025996;28;20108;-51
2022/05/20 07:44:20;;;;;;;3.05;2.10;;;;;;;;;;5039962;28;20025;-54
2022/05/20 07:46:46;;;;;;;6.93;3.25;;;;;;;;;;5025602;28;20561;-52
2022/05/20 07:49:12;;;;;;;4.78;2.15;;;;;;;;;;5021080;28;20029;-53
2022/05/20 07:51:40;;;;;;;3.38;2.30;;;;;;;;;;5019050;28;20026;-54
2022/05/20 07:54:08;;;;;;;3.92;1.95;;;;;;;;;;5034179;28;20032;-51
2022/05/20 07:56:37;;;;;;;3.38;2.28;;;;;;;;;;5026354;28;20037;-53
2022/05/20 07:59:06;;;;;;;4.43;2.28;;;;;;;;;;5035503;28;20056;-52
2022/05/20 08:01:34;;;;;;;5.97;2.05;;;;;;;;;;5031380;28;20060;-55
2022/05/20 08:06:54;;;;;;;7.95;2.63;;;;;;;;;;5034999;28;20080;-54
2022/05/20 08:09:20;;;;;;;5.88;2.90;;;;;;;;;;5027229;28;20061;-54
2022/05/20 08:11:46;;;;;;;7.00;2.22;;;;;;;;;;5029301;28;20030;-53
2022/05/20 08:14:12;;;;;;;4.25;2.42;;;;;;;;;;5031454;28;20052;-54
2022/05/20 08:16:38;;;;;;;7.75;2.15;;;;;;;;;;5029566;28;20025;-54
2022/05/20 08:19:04;;;;;;;5.20;2.13;;;;;;;;;;5027869;28;20049;-53
2022/05/20 08:21:31;;;;;;;4.38;2.33;;;;;;;;;;5030925;28;20033;-52
2022/05/20 08:23:57;;;;;;;6.88;2.45;;;;;;;;;;5028014;28;20409;-51
2022/05/20 08:26:23;;;;;;;3.38;1.60;;;;;;;;;;5029706;28;20033;-54
2022/05/20 08:28:49;;;;;;;3.63;2.25;;;;;;;;;;5025717;28;20040;-53
2022/05/20 08:31:16;;;;;;;3.03;2.10;;;;;;;;;;5028358;28;20079;-52
2022/05/20 08:33:42;;;;;;;6.15;1.77;;;;;;;;;;5028439;28;20026;-54
2022/05/20 08:36:08;;;;;;;4.70;2.97;;;;;;;;;;5030524;28;20156;-54
2022/05/20 08:38:34;;;;;;;5.85;2.75;;;;;;;;;;5029115;28;20033;-55
2022/05/20 08:41:01;;;;;;;3.40;2.38;;;;;;;;;;5026381;28;20033;-53
2022/05/20 08:43:28;;;;;;;8.23;2.00;;;;;;;;;;5029827;28;20395;-55
2022/05/20 08:45:55;;;;;;;4.22;2.13;;;;;;;;;;5049263;28;20029;-54
2022/05/20 08:48:21;;;;;;;4.07;2.33;;;;;;;;;;5045782;28;20568;-53
2022/05/20 08:50:48;;;;;;;4.10;1.85;;;;;;;;;;5046544;28;20483;-52
2022/05/20 08:53:17;;;;;;;6.45;2.03;;;;;;;;;;5050093;28;20524;-55
2022/05/20 08:55:44;;;;;;;4.18;2.10;;;;;;;;;;5052208;28;20500;-54
2022/05/20 08:58:11;;;;;;;4.90;2.38;;;;;;;;;;5052989;28;20119;-53
2022/05/20 09:00:37;;;;;;;2.88;1.92;;;;;;;;;;5046509;28;20133;-53
2022/05/20 09:03:06;;;;;;;5.38;1.60;;;;;;;;;;5044450;28;20029;-53
2022/05/20 09:05:36;;;;;;;6.10;2.40;;;;;;;;;;5042771;28;20033;-52
2022/05/20 09:08:22;;;;;;;3.85;1.83;;;;;;;;;;5027343;28;20503;-54
2022/05/20 09:10:53;;;;;;;4.20;1.90;;;;;;;;;;5019118;28;20728;-51
2022/05/20 09:16:22;;;;;;;2.95;1.90;;;;;;;;;;5017793;28;20096;-50
2022/05/20 09:18:50;;;;;;;8.60;2.60;;;;;;;;;;5023669;28;21913;-54
2022/05/20 09:21:28;;;;;;;5.53;2.67;;;;;;;;;;5031769;28;20472;-52
2022/05/20 09:23:55;;;;;;;2.20;1.63;;;;;;;;;;5032612;28;20030;-53
2022/05/20 09:26:24;;;;;;;5.00;2.25;;;;;;;;;;5031159;28;20044;-54
2022/05/20 09:28:53;;;;;;;3.53;1.75;;;;;;;;;;5030081;28;20025;-55
2022/05/20 09:31:25;;;;;;;6.07;2.15;;;;;;;;;;5028040;28;20116;-54
2022/05/20 09:33:56;;;;;;;4.60;1.70;;;;;;;;;;5030999;28;20029;-55
2022/05/20 09:36:34;;;;;;;4.25;2.20;;;;;;;;;;5031970;28;20017;-54
2022/05/20 09:39:17;;;;;;;3.55;1.95;;;;;;;;;;5030209;28;20472;-55
2022/05/20 09:41:47;;;;;;;5.72;1.73;;;;;;;;;;5029026;28;20119;-53
2022/05/20 09:44:15;;;;;;;2.85;1.65;;;;;;;;;;5032337;28;20384;-53
2022/05/20 09:46:53;;;;;;;2.70;1.80;;;;;;;;;;5031474;28;20060;-53
2022/05/20 09:49:38;;;;;;;2.47;1.38;;;;;;;;;;5028471;28;20120;-53
2022/05/20 09:52:14;;;;;;;4.68;2.35;;;;;;;;;;5031766;28;20682;-54
2022/05/20 09:54:42;;;;;;;3.38;2.13;;;;;;;;;;5032113;28;20039;-55
2022/05/20 09:57:16;;;;;;;3.50;2.20;;;;;;;;;;5031651;28;20029;-52
2022/05/20 09:59:57;;;;;;;3.78;2.00;;;;;;;;;;5027310;28;20044;-54
2022/05/20 10:02:26;;;;;;;4.40;2.03;;;;;;;;;;5031776;28;20029;-54
2022/05/20 10:05:12;;;;;;;3.60;1.73;;;;;;;;;;5032663;28;20120;-52
2022/05/20 10:07:54;;;;;;;2.38;1.65;;;;;;;;;;5022480;28;20033;-54
2022/05/20 10:10:38;;;;;;;4.40;2.30;;;;;;;;;;5046769;28;20025;-53
2022/05/20 10:13:06;;;;;;;3.10;1.75;;;;;;;;;;5045547;28;20029;-54
2022/05/20 10:15:34;;;;;;;3.03;1.85;;;;;;;;;;5038458;28;20025;-54
2022/05/20 10:18:04;;;;;;;2.03;1.50;;;;;;;;;;5036938;28;20056;-53
2022/05/20 10:20:33;;;;;;;4.72;1.65;;;;;;;;;;5041523;28;20090;-53
2022/05/20 10:23:17;;;;;;;2.97;2.13;;;;;;;;;;5020388;28;20033;-53
2022/05/20 10:25:56;;;;;;;5.03;1.60;;;;;;;;;;5029749;28;20457;-52
2022/05/20 10:34:04;;;;;;;62.22;9.23;;;;;;;;;;5051182;28;20814;-53
2022/05/20 10:36:39;;;;;;;5.25;2.10;;;;;;;;;;5048892;28;20029;-55
2022/05/20 10:39:16;;;;;;;4.57;1.50;;;;;;;;;;5034084;28;20079;-55
2022/05/20 10:41:42;;;;;;;2.53;1.80;;;;;;;;;;5040515;28;20384;-55
2022/05/20 10:49:59;;;;;;;4.55;1.90;;;;;;;;;;5050408;28;20043;-55
2022/05/20 10:52:43;;;;;;;2.90;1.42;;;;;;;;;;5032130;28;20087;-55
2022/05/20 10:55:25;;;;;;;4.15;1.50;;;;;;;;;;5044495;28;20455;-55
2022/05/20 10:58:29;;;;;;;2.55;1.42;;;;;;;;;;5042647;28;20383;-54
2022/05/20 11:00:55;;;;;;;4.53;1.33;;;;;;;;;;4965796;28;20137;-56
2022/05/20 11:03:29;;;;;;;2.40;1.70;;;;;;;;;;4966487;28;20034;-55
2022/05/20 11:06:23;;;;;;;3.63;1.27;;;;;;;;;;5006809;28;20041;-55
2022/05/20 11:08:48;;;;;;;2.70;1.30;;;;;;;;;;5052919;28;20039;-55
2022/05/20 11:11:20;;;;;;;3.47;1.23;;;;;;;;;;5041750;28;20025;-55
2022/05/20 11:13:58;;;;;;;2.42;1.67;;;;;;;;;;5040005;28;20025;-56
2022/05/20 11:16:36;;;;;;;3.70;1.70;;;;;;;;;;5045026;28;20029;-55
2022/05/20 11:19:21;;;;;;;5.57;1.25;;;;;;;;;;5050839;28;20025;-55
2022/05/20 11:21:47;;;;;;;3.35;1.50;;;;;;;;;;5031425;28;20059;-55
2022/05/20 11:24:31;;;;;;;2.58;1.35;;;;;;;;;;5053583;28;20503;-55
2022/05/20 11:27:13;;;;;;;2.88;1.10;;;;;;;;;;5051099;28;20029;-55
2022/05/20 11:29:39;;;;;;;6.07;1.60;;;;;;;;;;5039925;28;20024;-54
2022/05/20 11:32:11;;;;;;;2.47;1.40;;;;;;;;;;5037531;28;20032;-56
2022/05/20 11:34:55;;;;;;;2.13;1.15;;;;;;;;;;5036320;28;20025;-55
2022/05/20 11:37:33;;;;;;;2.15;1.23;;;;;;;;;;5050883;28;20025;-56
2022/05/20 11:40:10;;;;;;;4.47;1.10;;;;;;;;;;5041957;28;20555;-56
2022/05/20 11:42:52;;;;;;;1.73;1.02;;;;;;;;;;5040321;28;20115;-56
2022/05/20 11:45:38;;;;;;;2.45;0.60;;;;;;;;;;5048026;28;20033;-56
2022/05/20 11:48:11;;;;;;;1.38;0.90;;;;;;;;;;4986909;28;20037;-56
2022/05/20 11:50:47;;;;;;;2.80;1.05;;;;;;;;;;5050238;28;20025;-55
2022/05/20 11:53:23;;;;;;;3.17;0.82;;;;;;;;;;5040652;28;20017;-56
2022/05/20 11:55:52;;;;;;;4.57;1.27;;;;;;;;;;5041779;28;20108;-55
2022/05/20 11:58:24;;;;;;;1.52;0.88;;;;;;;;;;5044951;28;20051;-56
2022/05/20 12:00:51;;;;;;;1.73;0.85;;;;;;;;;;5046336;28;20033;-54
2022/05/20 12:03:18;;;;;;;2.22;0.88;;;;;;;;;;5047166;28;20033;-57
2022/05/20 12:05:45;;;;;;;0.77;0.57;;;;;;;;;;5036816;28;20079;-54
2022/05/20 12:08:30;;;;;;;2.13;0.73;;;;;;;;;;5034968;28;20054;-54
2022/05/20 12:10:56;;;;;;;1.17;0.80;;;;;;;;;;5038494;28;20018;-55
2022/05/20 12:13:23;;;;;;;1.88;0.60;;;;;;;;;;5036417;28;20018;-54
2022/05/20 12:16:08;;;;;;;1.05;0.50;;;;;;;;;;5046943;28;20037;-54
2022/05/20 12:24:28;;;;;;;2.47;0.70;;;;;;;;;;5049728;28;20129;-55
2022/05/20 12:26:55;;;;;;;1.60;0.52;;;;;;;;;;5049564;28;20547;-55
2022/05/20 12:29:39;;;;;;;0.63;0.35;;;;;;;;;;5039367;28;20029;-55
2022/05/20 12:32:29;;;;;;;0.63;0.30;;;;;;;;;;5036808;28;20108;-54
2022/05/20 12:35:04;;;;;;;0.77;0.45;;;;;;;;;;5031696;28;20044;-55
2022/05/20 12:37:42;;;;;;;0.70;0.40;;;;;;;;;;5047969;28;20025;-55
2022/05/20 12:40:40;;;;;;;3.67;0.60;;;;;;;;;;5053959;28;20021;-54
2022/05/20 12:43:08;;;;;;;0.47;0.30;;;;;;;;;;5035088;28;20140;-55
2022/05/20 12:45:37;;;;;;;0.40;0.30;;;;;;;;;;5053697;28;20383;-54
2022/05/20 12:48:03;;;;;;;0.63;0.40;;;;;;;;;;5050196;28;20025;-54
2022/05/20 12:50:31;;;;;;;1.20;0.60;;;;;;;;;;5053126;28;20373;-54
2022/05/20 12:53:01;;;;;;;0.55;0.30;;;;;;;;;;5043940;28;20499;-54
2022/05/20 12:55:28;;;;;;;1.45;0.40;;;;;;;;;;5042685;28;20028;-54
2022/05/20 12:57:59;;;;;;;0.47;0.40;;;;;;;;;;5030327;28;20532;-55
2022/05/20 13:00:28;;;;;;;1.35;0.52;;;;;;;;;;5044386;28;20391;-55
2022/05/20 13:03:08;;;;;;;0.90;0.40;;;;;;;;;;5032393;28;20032;-54
2022/05/20 13:05:40;;;;;;;0.90;0.52;;;;;;;;;;5053540;28;20102;-55
2022/05/20 13:08:11;;;;;;;7.43;0.60;;;;;;;;;;5050467;28;20578;-55
2022/05/20 13:10:39;;;;;;;0.90;0.43;;;;;;;;;;5048773;28;20370;-54
2022/05/20 13:13:16;;;;;;;1.33;0.52;;;;;;;;;;5037284;28;20055;-53
2022/05/20 13:15:48;;;;;;;2.58;0.40;;;;;;;;;;5047074;28;20266;-54
2022/05/20 13:18:18;;;;;;;1.75;0.52;;;;;;;;;;5053007;28;20107;-54
2022/05/20 13:20:45;;;;;;;2.45;0.70;;;;;;;;;;5042875;28;20040;-54
2022/05/20 13:23:16;;;;;;;0.57;0.43;;;;;;;;;;5044279;28;20041;-54
2022/05/20 13:25:45;;;;;;;1.48;0.45;;;;;;;;;;5048064;28;20484;-55
2022/05/20 13:28:11;;;;;;;1.10;0.50;;;;;;;;;;5037015;28;20423;-54
2022/05/20 13:30:38;;;;;;;1.13;0.70;;;;;;;;;;5046865;28;20455;-54
2022/05/20 13:33:06;;;;;;;0.63;0.50;;;;;;;;;;5050384;28;20103;-56
2022/05/20 13:35:39;;;;;;;0.47;0.40;;;;;;;;;;5049891;28;20021;-54
2022/05/20 13:38:06;;;;;;;2.08;0.70;;;;;;;;;;5033210;28;20065;-54
2022/05/20 13:40:33;;;;;;;1.30;0.70;;;;;;;;;;5050461;28;20492;-55
2022/05/20 13:43:00;;;;;;;1.65;0.70;;;;;;;;;;5052808;28;20183;-54
2022/05/20 13:51:09;;;;;;;0.70;0.50;;;;;;;;;;5036460;28;20173;-54
2022/05/20 13:53:35;;;;;;;0.82;0.60;;;;;;;;;;5035898;28;20389;-54
2022/05/20 13:56:02;;;;;;;3.92;0.63;;;;;;;;;;5049735;28;20095;-54
2022/05/20 13:58:29;;;;;;;0.90;0.68;;;;;;;;;;5042418;28;20049;-54
2022/05/20 14:01:00;;;;;;;2.30;0.90;;;;;;;;;;5044059;28;20091;-54
2022/05/20 14:03:31;;;;;;;1.48;0.73;;;;;;;;;;5053771;28;20396;-54
2022/05/20 14:06:13;;;;;;;1.95;0.60;;;;;;;;;;5054362;28;20048;-54
2022/05/20 14:08:41;;;;;;;1.60;0.60;;;;;;;;;;5057614;28;20039;-54
2022/05/20 14:11:12;;;;;;;2.47;0.82;;;;;;;;;;5043638;28;20526;-54
2022/05/20 14:13:40;;;;;;;1.17;0.68;;;;;;;;;;5052836;28;20065;-54
2022/05/20 14:16:11;;;;;;;2.35;0.70;;;;;;;;;;5043287;28;20116;-55
2022/05/20 14:18:42;;;;;;;0.88;0.60;;;;;;;;;;5050700;28;20388;-54
2022/05/20 14:21:13;;;;;;;1.48;0.52;;;;;;;;;;5040505;28;20487;-54
2022/05/20 14:23:52;;;;;;;1.75;0.60;;;;;;;;;;5052179;28;20028;-55
2022/05/20 14:26:22;;;;;;;1.88;0.50;;;;;;;;;;5034820;28;20021;-55
2022/05/20 14:28:51;;;;;;;1.33;0.73;;;;;;;;;;5035417;28;20025;-55
2022/05/20 14:31:41;;;;;;;1.02;0.65;;;;;;;;;;5031850;28;20080;-54
2022/05/20 14:34:13;;;;;;;4.53;1.02;;;;;;;;;;5029625;28;20033;-55
2022/05/20 14:36:39;;;;;;;1.97;0.60;;;;;;;;;;5044024;28;20074;-54
2022/05/20 14:39:08;;;;;;;1.40;0.70;;;;;;;;;;5035415;28;20043;-55
2022/05/20 14:41:35;;;;;;;1.10;0.70;;;;;;;;;;5040505;28;20118;-54
2022/05/20 14:44:05;;;;;;;1.10;0.57;;;;;;;;;;5039162;28;20025;-54
2022/05/20 14:49:30;;;;;;;2.60;0.80;;;;;;;;;;5042972;28;20454;-54
2022/05/20 14:51:56;;;;;;;2.85;0.88;;;;;;;;;;5039537;28;20419;-54
2022/05/20 14:54:26;;;;;;;68.45;9.30;;;;;;;;;;5033156;28;20028;-54
2022/05/20 14:56:52;;;;;;;2.97;0.57;;;;;;;;;;5041449;28;20115;-54
2022/05/20 14:59:29;;;;;;;0.93;0.60;;;;;;;;;;5039226;28;21018;-54
2022/05/20 15:01:56;;;;;;;1.67;0.77;;;;;;;;;;5038671;28;20037;-54
2022/05/20 15:04:22;;;;;;;1.67;0.90;;;;;;;;;;5049338;28;20017;-54
2022/05/20 15:06:48;;;;;;;1.75;1.20;;;;;;;;;;5050825;28;20067;-54
2022/05/20 15:09:24;;;;;;;1.55;0.70;;;;;;;;;;5037348;28;20760;-54
2022/05/20 15:11:51;;;;;;;2.65;0.90;;;;;;;;;;5031559;28;20061;-54
2022/05/20 15:14:17;;;;;;;1.10;0.55;;;;;;;;;;5042550;28;20040;-54
2022/05/20 15:16:44;;;;;;;45.85;7.78;;;;;;;;;;5041859;28;20021;-54
2022/05/20 15:19:11;;;;;;;4.15;1.00;;;;;;;;;;5050623;28;20112;-54
2022/05/20 15:21:39;;;;;;;4.55;1.17;;;;;;;;;;5046216;28;20033;-54
2022/05/20 15:24:07;;;;;;;28.60;5.03;;;;;;;;;;5041357;28;20473;-54
2022/05/20 15:26:33;;;;;;;1.65;1.00;;;;;;;;;;5040560;28;20383;-54
2022/05/20 15:29:00;;;;;;;7.82;1.60;;;;;;;;;;5051175;28;20029;-53
2022/05/20 15:36:57;;;;;;;3.42;0.77;;;;;;;;;;5039943;28;20041;-54
2022/05/20 15:39:25;;;;;;;0.88;0.73;;;;;;;;;;5039460;28;20021;-54
2022/05/20 15:41:51;;;;;;;1.60;0.75;;;;;;;;;;5045501;28;20049;-54
2022/05/20 15:44:17;;;;;;;1.02;0.70;;;;;;;;;;5035780;28;20044;-53
2022/05/20 15:46:43;;;;;;;1.75;0.73;;;;;;;;;;5042886;28;20041;-54
2022/05/20 15:49:09;;;;;;;3.08;1.15;;;;;;;;;;5031157;28;20029;-54